createdAt,value
2018-02-24T00:00:29.077Z,87.38
2018-02-24T00:01:28.836Z,87.29
2018-02-24T00:02:30.110Z,87.24
2018-02-24T00:03:28.587Z,87.19
2018-02-24T00:04:29.375Z,87.29
2018-02-24T00:05:50.313Z,87.38
2018-02-24T00:06:51.231Z,87.48
2018-02-24T00:07:51.705Z,87.57
2018-02-24T00:08:51.162Z,87.76
2018-02-24T00:10:12.191Z,87.76
2018-02-24T00:11:12.658Z,87.66
2018-02-24T00:12:12.264Z,87.38
2018-02-24T00:13:13.294Z,87.19
2018-02-24T00:14:11.922Z,87.05
2018-02-24T00:15:34.287Z,86.82
2018-02-24T00:16:34.325Z,86.86
2018-02-24T00:17:34.206Z,87.05
2018-02-24T00:18:34.539Z,87.00
2018-02-24T00:19:34.137Z,87.10
2018-02-24T00:20:34.424Z,87.10
2018-02-24T00:21:33.829Z,87.00
2018-02-24T00:22:34.319Z,87.00
2018-02-24T00:23:33.962Z,87.10
2018-02-24T00:24:55.915Z,87.00
2018-02-24T00:25:55.539Z,86.91
2018-02-24T00:26:58.642Z,87.00
2018-02-24T00:28:17.293Z,86.91
2018-02-24T00:29:18.283Z,86.91
2018-02-24T00:30:18.010Z,87.00
2018-02-24T00:31:17.342Z,86.91
2018-02-24T00:32:17.826Z,86.82
2018-02-24T00:33:17.443Z,87.00
2018-02-24T00:34:19.710Z,87.00
2018-02-24T00:35:18.529Z,86.91
2018-02-24T00:36:18.034Z,86.82
2018-02-24T00:37:17.517Z,86.82
2018-02-24T00:38:18.097Z,86.91
2018-02-24T00:39:18.040Z,87.00
2018-02-24T00:40:17.771Z,87.00
2018-02-24T00:41:17.797Z,87.00
2018-02-24T00:42:18.314Z,87.19
2018-02-24T00:44:06.469Z,87.38
2018-02-24T00:45:29.292Z,87.48
2018-02-24T00:46:31.231Z,87.48
2018-02-24T00:47:30.573Z,87.48
2018-02-24T00:48:29.090Z,87.48
2018-02-24T00:49:29.544Z,87.57
2018-02-24T00:50:31.076Z,87.66
2018-02-24T00:51:30.030Z,87.66
2018-02-24T00:52:29.423Z,87.76
2018-02-24T00:53:30.228Z,87.76
2018-02-24T00:54:30.056Z,87.85
2018-02-24T00:55:30.042Z,87.76
2018-02-24T00:56:31.489Z,87.76
2018-02-24T00:57:29.090Z,87.76
2018-02-24T00:58:31.207Z,87.76
2018-02-24T00:59:30.384Z,87.76
2018-02-24T01:00:30.373Z,87.76
2018-02-24T01:01:29.954Z,87.76
2018-02-24T01:02:31.017Z,87.76
2018-02-24T01:03:30.206Z,87.76
2018-02-24T01:04:30.725Z,87.85
2018-02-24T01:05:30.251Z,87.95
2018-02-24T01:06:31.760Z,88.04
2018-02-24T01:07:30.333Z,88.04
2018-02-24T01:08:30.004Z,88.13
2018-02-24T01:09:30.094Z,88.13
2018-02-24T01:10:52.524Z,88.23
2018-02-24T01:11:51.474Z,88.23
2018-02-24T01:12:51.114Z,88.42
2018-02-24T01:13:51.877Z,88.51
2018-02-24T01:14:51.917Z,88.60
2018-02-24T01:15:51.247Z,88.60
2018-02-24T01:16:52.500Z,88.51
2018-02-24T01:17:51.738Z,88.51
2018-02-24T01:19:13.887Z,88.60
2018-02-24T01:20:34.720Z,88.60
2018-02-24T01:21:35.151Z,88.70
2018-02-24T01:22:35.822Z,88.51
2018-02-24T01:23:35.270Z,88.42
2018-02-24T01:24:34.789Z,88.42
2018-02-24T01:25:35.192Z,88.42
2018-02-24T01:26:34.942Z,88.51
2018-02-24T01:27:35.735Z,88.42
2018-02-24T01:28:35.492Z,88.51
2018-02-24T01:29:35.148Z,88.42
2018-02-24T01:30:34.845Z,88.42
2018-02-24T01:31:35.810Z,88.23
2018-02-24T01:32:35.779Z,88.23
2018-02-24T01:33:35.136Z,88.42
2018-02-24T01:34:35.742Z,88.51
2018-02-24T01:35:35.307Z,88.60
2018-02-24T01:36:35.068Z,88.51
2018-02-24T01:37:34.789Z,88.42
2018-02-24T01:38:35.540Z,88.51
2018-02-24T01:39:34.936Z,88.60
2018-02-24T01:40:35.774Z,88.51
2018-02-24T01:41:35.392Z,88.60
2018-02-24T01:42:35.047Z,88.70
2018-02-24T01:43:35.830Z,88.70
2018-02-24T01:44:35.546Z,88.79
2018-02-24T01:45:35.180Z,88.70
2018-02-24T01:46:35.622Z,88.70
2018-02-24T01:47:35.216Z,88.51
2018-02-24T01:48:35.096Z,88.42
2018-02-24T01:49:35.378Z,88.32
2018-02-24T01:50:35.260Z,88.23
2018-02-24T01:51:34.810Z,88.23
2018-02-24T01:52:35.151Z,88.23
2018-02-24T01:53:34.623Z,88.23
2018-02-24T01:54:35.474Z,88.13
2018-02-24T01:55:57.241Z,88.13
2018-02-24T01:56:56.980Z,88.23
2018-02-24T01:58:18.175Z,88.32
2018-02-24T01:59:18.543Z,88.42
2018-02-24T02:00:18.555Z,88.42
2018-02-24T02:01:18.072Z,88.51
2018-02-24T02:02:18.942Z,88.51
2018-02-24T02:03:18.882Z,88.51
2018-02-24T02:04:18.345Z,88.42
2018-02-24T02:05:17.745Z,88.32
2018-02-24T02:06:18.655Z,88.42
2018-02-24T02:07:40.078Z,88.42
2018-02-24T02:08:40.900Z,88.60
2018-02-24T02:09:40.459Z,88.70
2018-02-24T02:10:39.842Z,88.79
2018-02-24T02:11:40.665Z,88.89
2018-02-24T02:12:40.672Z,89.08
2018-02-24T02:14:01.535Z,89.17
2018-02-24T02:15:02.042Z,89.17
2018-02-24T02:16:01.588Z,89.17
2018-02-24T02:17:02.526Z,89.27
2018-02-24T02:18:01.994Z,89.45
2018-02-24T02:19:23.016Z,89.55
2018-02-24T02:20:23.453Z,89.64
2018-02-24T02:21:24.730Z,89.74
2018-02-24T02:22:23.219Z,89.83
2018-02-24T02:23:23.994Z,89.93
2018-02-24T02:24:23.814Z,89.74
2018-02-24T02:25:23.297Z,89.83
2018-02-24T02:26:24.219Z,89.93
2018-02-24T02:27:24.105Z,90.02
2018-02-24T02:28:24.041Z,90.02
2018-02-24T02:29:23.526Z,90.12
2018-02-24T02:30:23.982Z,90.31
2018-02-24T02:31:23.653Z,90.40
2018-02-24T02:32:23.739Z,90.40
2018-02-24T02:33:24.380Z,90.59
2018-02-24T02:34:23.960Z,90.68
2018-02-24T02:35:23.330Z,90.68
2018-02-24T02:36:23.636Z,90.59
2018-02-24T02:37:23.785Z,90.68
2018-02-24T02:38:24.082Z,90.78
2018-02-24T02:39:23.360Z,90.87
2018-02-24T02:40:23.677Z,90.87
2018-02-24T02:41:44.872Z,90.97
2018-02-24T02:42:45.467Z,91.06
2018-02-24T02:43:45.224Z,91.06
2018-02-24T02:44:44.952Z,91.16
2018-02-24T02:45:44.479Z,91.25
2018-02-24T02:46:44.873Z,91.35
2018-02-24T02:47:45.677Z,91.35
2018-02-24T02:49:06.591Z,91.53
2018-02-24T02:50:07.282Z,91.63
2018-02-24T02:51:07.127Z,91.72
2018-02-24T02:52:07.355Z,91.72
2018-02-24T02:53:06.958Z,91.91
2018-02-24T02:54:28.885Z,91.91
2018-02-24T02:55:29.125Z,92.00
2018-02-24T02:56:30.042Z,91.82
2018-02-24T02:57:29.580Z,91.72
2018-02-24T02:58:29.234Z,91.72
2018-02-24T02:59:29.388Z,91.72
2018-02-24T03:00:29.041Z,91.82
2018-02-24T03:01:29.418Z,91.91
2018-02-24T03:02:29.317Z,91.82
2018-02-24T03:03:52.672Z,91.91
2018-02-24T03:04:53.095Z,92.00
2018-02-24T03:05:52.958Z,92.00
2018-02-24T03:06:52.678Z,92.00
2018-02-24T03:08:14.485Z,92.10
2018-02-24T03:09:15.278Z,92.19
2018-02-24T03:10:14.534Z,92.19
2018-02-24T03:11:15.118Z,92.19
2018-02-24T03:12:14.837Z,92.29
2018-02-24T03:13:14.695Z,92.29
2018-02-24T03:14:36.176Z,92.29
2018-02-24T03:15:37.086Z,92.29
2018-02-24T03:16:36.721Z,92.38
2018-02-24T03:17:36.086Z,92.47
2018-02-24T03:18:36.456Z,92.47
2018-02-24T03:19:59.074Z,92.38
2018-02-24T03:21:00.055Z,92.38
2018-02-24T03:21:59.875Z,92.47
2018-02-24T03:22:59.300Z,92.47
2018-02-24T03:23:59.775Z,92.47
2018-02-24T03:24:59.464Z,92.47
2018-02-24T03:25:59.701Z,92.47
2018-02-24T03:26:59.452Z,92.38
2018-02-24T03:27:59.641Z,92.29
2018-02-24T03:28:59.208Z,92.29
2018-02-24T03:29:59.907Z,92.29
2018-02-24T03:30:59.418Z,92.29
2018-02-24T03:31:59.686Z,92.29
2018-02-24T03:32:59.618Z,92.29
2018-02-24T03:33:59.094Z,92.38
2018-02-24T03:35:00.058Z,92.33
2018-02-24T03:36:21.040Z,92.43
2018-02-24T03:37:21.744Z,92.38
2018-02-24T03:38:21.502Z,92.43
2018-02-24T03:39:22.119Z,92.43
2018-02-24T03:40:22.883Z,92.43
2018-02-24T03:41:21.324Z,92.43
2018-02-24T03:42:21.845Z,92.52
2018-02-24T03:43:21.925Z,92.47
2018-02-24T03:44:21.535Z,92.43
2018-02-24T03:45:21.430Z,92.43
2018-02-24T03:46:22.669Z,92.38
2018-02-24T03:47:20.969Z,92.33
2018-02-24T03:48:21.269Z,92.33
2018-02-24T03:49:22.080Z,92.33
2018-02-24T03:50:21.833Z,92.33
2018-02-24T03:51:21.222Z,92.43
2018-02-24T03:52:21.504Z,92.33
2018-02-24T03:53:22.301Z,92.33
2018-02-24T03:54:21.886Z,92.33
2018-02-24T03:55:21.483Z,92.29
2018-02-24T03:56:22.224Z,92.19
2018-02-24T03:57:21.661Z,92.14
2018-02-24T03:58:21.383Z,92.05
2018-02-24T03:59:21.913Z,92.05
2018-02-24T04:00:21.210Z,91.96
2018-02-24T04:01:21.543Z,91.96
2018-02-24T04:02:21.525Z,91.96
2018-02-24T04:03:22.607Z,91.96
2018-02-24T04:04:22.326Z,91.96
2018-02-24T04:05:21.713Z,91.86
2018-02-24T04:06:20.998Z,91.96
2018-02-24T04:07:21.416Z,91.86
2018-02-24T04:08:22.104Z,91.96
2018-02-24T04:09:21.417Z,91.96
2018-02-24T04:10:20.932Z,92.05
2018-02-24T04:11:21.525Z,92.05
2018-02-24T04:12:22.174Z,92.05
2018-02-24T04:13:22.333Z,92.05
2018-02-24T04:14:21.669Z,91.96
2018-02-24T04:15:21.088Z,91.96
2018-02-24T04:16:21.754Z,91.86
2018-02-24T04:17:21.495Z,91.86
2018-02-24T04:18:22.082Z,91.77
2018-02-24T04:19:21.783Z,91.67
2018-02-24T04:20:21.611Z,91.67
2018-02-24T04:21:22.244Z,91.77
2018-02-24T04:22:21.990Z,91.77
2018-02-24T04:23:21.388Z,91.77
2018-02-24T04:24:22.287Z,91.77
2018-02-24T04:25:22.058Z,91.86
2018-02-24T04:26:21.400Z,91.86
2018-02-24T04:27:21.716Z,91.86
2018-02-24T04:28:21.094Z,91.96
2018-02-24T04:29:44.141Z,91.77
2018-02-24T04:30:44.523Z,91.67
2018-02-24T04:31:44.084Z,91.77
2018-02-24T04:32:44.424Z,91.86
2018-02-24T04:33:44.128Z,91.96
2018-02-24T04:34:45.020Z,92.05
2018-02-24T04:35:44.674Z,92.14
2018-02-24T04:36:44.392Z,92.14
2018-02-24T04:37:43.838Z,92.24
2018-02-24T04:38:44.694Z,92.24
2018-02-24T04:39:44.268Z,92.24
2018-02-24T04:41:05.091Z,92.24
2018-02-24T04:42:06.059Z,92.33
2018-02-24T04:43:26.923Z,92.43
2018-02-24T04:44:50.036Z,92.33
2018-02-24T04:45:51.022Z,92.43
2018-02-24T04:46:50.851Z,92.43
2018-02-24T04:47:50.792Z,92.52
2018-02-24T04:48:50.432Z,92.71
2018-02-24T04:49:50.246Z,92.71
2018-02-24T04:50:51.004Z,92.71
2018-02-24T04:52:11.427Z,92.80
2018-02-24T04:53:11.870Z,92.90
2018-02-24T04:54:12.724Z,92.99
2018-02-24T04:55:12.466Z,92.99
2018-02-24T04:56:12.364Z,93.09
2018-02-24T04:57:11.906Z,93.09
2018-02-24T04:58:12.860Z,93.09
2018-02-24T04:59:12.151Z,93.28
2018-02-24T05:00:12.370Z,93.28
2018-02-24T05:01:12.210Z,93.18
2018-02-24T05:02:11.657Z,93.28
2018-02-24T05:03:12.334Z,93.28
2018-02-24T05:04:12.590Z,93.18
2018-02-24T05:05:12.103Z,93.28
2018-02-24T05:06:13.251Z,93.28
2018-02-24T05:07:11.851Z,93.28
2018-02-24T05:08:12.307Z,93.37
2018-02-24T05:09:11.864Z,93.47
2018-02-24T05:10:12.437Z,93.37
2018-02-24T05:11:12.216Z,93.37
2018-02-24T05:12:12.142Z,93.56
2018-02-24T05:13:11.967Z,93.65
2018-02-24T05:14:11.388Z,93.65
2018-02-24T05:15:11.527Z,93.75
2018-02-24T05:16:12.392Z,93.84
2018-02-24T05:17:11.794Z,93.84
2018-02-24T05:18:12.642Z,93.84
2018-02-24T05:19:12.288Z,93.94
2018-02-24T05:20:11.598Z,93.94
2018-02-24T05:21:12.013Z,93.94
2018-02-24T05:22:11.692Z,94.03
2018-02-24T05:23:12.396Z,94.03
2018-02-24T05:24:12.156Z,94.03
2018-02-24T05:25:11.761Z,94.03
2018-02-24T05:26:12.037Z,94.03
2018-02-24T05:27:11.894Z,94.13
2018-02-24T05:28:12.699Z,94.13
2018-02-24T05:29:12.416Z,94.13
2018-02-24T05:30:12.073Z,94.22
2018-02-24T05:31:12.684Z,94.22
2018-02-24T05:32:12.847Z,94.32
2018-02-24T05:33:12.621Z,94.41
2018-02-24T05:34:12.440Z,94.51
2018-02-24T05:35:12.028Z,94.60
2018-02-24T05:36:12.720Z,94.69
2018-02-24T05:37:12.602Z,94.79
2018-02-24T05:38:12.017Z,94.69
2018-02-24T05:39:11.796Z,94.79
2018-02-24T05:40:12.227Z,94.79
2018-02-24T05:41:12.106Z,94.79
2018-02-24T05:42:12.977Z,94.88
2018-02-24T05:43:12.365Z,94.98
2018-02-24T05:44:12.209Z,94.98
2018-02-24T05:45:11.689Z,94.98
2018-02-24T05:46:12.197Z,95.07
2018-02-24T05:47:11.773Z,95.07
2018-02-24T05:48:12.678Z,94.98
2018-02-24T05:49:12.948Z,94.98
2018-02-24T05:50:12.595Z,95.07
2018-02-24T05:51:12.481Z,95.07
2018-02-24T05:52:11.875Z,95.17
2018-02-24T05:53:12.334Z,95.26
2018-02-24T05:54:12.101Z,95.26
2018-02-24T05:55:12.522Z,95.26
2018-02-24T05:56:11.768Z,95.26
2018-02-24T05:57:12.520Z,95.26
2018-02-24T05:58:12.186Z,95.26
2018-02-24T05:59:11.658Z,95.26
2018-02-24T06:00:12.524Z,95.26
2018-02-24T06:01:12.233Z,95.36
2018-02-24T06:02:11.847Z,95.45
2018-02-24T06:03:12.582Z,95.36
2018-02-24T06:04:12.320Z,95.36
2018-02-24T06:05:33.581Z,95.36
2018-02-24T06:06:33.907Z,95.36
2018-02-24T06:07:33.663Z,95.36
2018-02-24T06:08:34.418Z,95.45
2018-02-24T06:09:33.934Z,95.54
2018-02-24T06:10:33.344Z,95.54
2018-02-24T06:11:34.148Z,95.73
2018-02-24T06:12:33.904Z,95.64
2018-02-24T06:13:34.364Z,95.64
2018-02-24T06:14:34.286Z,95.54
2018-02-24T06:15:34.925Z,95.45
2018-02-24T06:16:35.222Z,95.45
2018-02-24T06:17:34.177Z,95.54
2018-02-24T06:18:33.830Z,95.54
2018-02-24T06:19:54.940Z,95.45
2018-02-24T06:20:55.670Z,95.36
2018-02-24T06:21:55.014Z,95.36
2018-02-24T06:22:55.927Z,95.17
2018-02-24T06:24:02.737Z,95.73
2018-02-24T06:24:55.236Z,95.54
2018-02-24T06:25:56.022Z,95.45
2018-02-24T06:26:55.886Z,95.36
2018-02-24T06:27:55.597Z,95.45
2018-02-24T06:28:55.519Z,95.36
2018-02-24T06:29:55.946Z,95.26
2018-02-24T06:30:55.722Z,95.26
2018-02-24T06:31:55.738Z,95.26
2018-02-24T06:32:55.347Z,95.26
2018-02-24T06:34:40.032Z,95.26
2018-02-24T06:35:55.874Z,95.17
2018-02-24T06:36:55.219Z,95.17
2018-02-24T06:37:55.643Z,95.07
2018-02-24T06:39:16.708Z,95.07
2018-02-24T06:40:17.228Z,95.07
2018-02-24T06:41:17.906Z,94.98
2018-02-24T06:42:18.272Z,94.98
2018-02-24T06:43:18.008Z,94.98
2018-02-24T06:44:17.680Z,94.98
2018-02-24T06:45:17.603Z,94.98
2018-02-24T06:46:17.506Z,94.98
2018-02-24T06:47:17.269Z,94.69
2018-02-24T06:48:16.882Z,94.51
2018-02-24T06:49:17.716Z,94.22
2018-02-24T06:50:17.540Z,94.18
2018-02-24T06:51:17.468Z,93.99
2018-02-24T06:52:16.900Z,93.51
2018-02-24T06:53:18.482Z,93.23
2018-02-24T06:54:16.875Z,92.76
2018-02-24T06:55:22.983Z,92.19
2018-02-24T06:56:17.576Z,91.53
2018-02-24T06:57:17.557Z,90.87
2018-02-24T06:58:17.392Z,90.40
2018-02-24T06:59:17.021Z,90.02
2018-02-24T07:00:18.021Z,89.74
2018-02-24T07:01:17.424Z,89.50
2018-02-24T07:02:16.969Z,89.12
2018-02-24T07:03:17.733Z,88.84
2018-02-24T07:04:17.242Z,88.46
2018-02-24T07:05:18.014Z,88.28
2018-02-24T07:06:17.636Z,87.99
2018-02-24T07:07:17.383Z,87.80
2018-02-24T07:08:17.357Z,87.80
2018-02-24T07:09:17.357Z,87.80
2018-02-24T07:10:16.913Z,87.90
2018-02-24T07:11:18.367Z,87.80
2018-02-24T07:12:17.086Z,87.62
2018-02-24T07:13:17.893Z,87.33
2018-02-24T07:14:17.816Z,87.14
2018-02-24T07:15:17.682Z,87.05
2018-02-24T07:16:18.130Z,86.95
2018-02-24T07:17:17.082Z,86.95
2018-02-24T07:18:18.037Z,86.95
2018-02-24T07:19:17.741Z,86.95
2018-02-24T07:20:17.226Z,87.24
2018-02-24T07:21:17.075Z,87.43
2018-02-24T07:22:17.614Z,87.52
2018-02-24T07:23:17.353Z,87.52
2018-02-24T07:24:39.930Z,87.52
2018-02-24T07:25:40.449Z,87.52
2018-02-24T07:26:41.131Z,87.33
2018-02-24T07:27:41.250Z,87.43
2018-02-24T07:28:40.669Z,87.14
2018-02-24T07:29:39.925Z,86.76
2018-02-24T07:30:40.321Z,86.48
2018-02-24T07:31:40.963Z,86.01
2018-02-24T07:32:40.934Z,85.63
2018-02-24T07:33:40.329Z,85.16
2018-02-24T07:34:41.253Z,84.69
2018-02-24T07:35:41.065Z,83.97
2018-02-24T07:36:40.705Z,83.50
2018-02-24T07:38:01.965Z,82.56
2018-02-24T07:39:02.077Z,81.71
2018-02-24T07:40:02.040Z,81.18
2018-02-24T07:41:01.636Z,80.62
2018-02-24T07:42:02.035Z,79.67
2018-02-24T07:43:02.470Z,79.10
2018-02-24T07:44:02.367Z,78.53
2018-02-24T07:45:02.205Z,77.97
2018-02-24T07:46:02.000Z,77.78
2018-02-24T07:47:02.889Z,77.78
2018-02-24T07:48:01.926Z,77.40
2018-02-24T07:49:02.965Z,77.02
2018-02-24T07:50:03.068Z,77.02
2018-02-24T07:51:01.705Z,77.40
2018-02-24T07:52:02.601Z,77.40
2018-02-24T07:53:02.487Z,77.31
2018-02-24T07:54:02.424Z,77.40
2018-02-24T07:55:02.309Z,77.50
2018-02-24T07:56:02.538Z,77.59
2018-02-24T07:57:01.976Z,77.59
2018-02-24T07:58:01.718Z,77.69
2018-02-24T07:59:02.230Z,77.87
2018-02-24T08:00:01.761Z,77.97
2018-02-24T08:01:02.529Z,78.06
2018-02-24T08:02:02.064Z,78.34
2018-02-24T08:03:02.885Z,78.63
2018-02-24T08:04:02.802Z,79.10
2018-02-24T08:05:02.566Z,79.29
2018-02-24T08:06:02.486Z,79.44
2018-02-24T08:07:02.118Z,80.00
2018-02-24T08:08:03.523Z,80.66
2018-02-24T08:09:01.955Z,80.95
2018-02-24T08:10:02.453Z,81.52
2018-02-24T08:11:46.547Z,81.61
2018-02-24T08:12:46.211Z,81.71
2018-02-24T08:13:46.853Z,81.61
2018-02-24T08:14:46.764Z,81.90
2018-02-24T08:15:46.666Z,81.99
2018-02-24T08:16:46.641Z,82.03
2018-02-24T08:17:46.613Z,81.74
2018-02-24T08:18:46.056Z,81.61
2018-02-24T08:19:47.636Z,81.71
2018-02-24T08:20:47.327Z,81.99
2018-02-24T08:21:46.332Z,82.09
2018-02-24T08:22:46.901Z,82.28
2018-02-24T08:23:46.886Z,82.50
2018-02-24T08:24:47.017Z,82.60
2018-02-24T08:25:47.706Z,82.56
2018-02-24T08:26:46.250Z,82.65
2018-02-24T08:27:46.745Z,82.84
2018-02-24T08:29:08.126Z,83.07
2018-02-24T08:30:07.904Z,82.98
2018-02-24T08:31:08.499Z,82.98
2018-02-24T08:32:08.445Z,82.98
2018-02-24T08:33:08.489Z,83.17
2018-02-24T08:34:09.425Z,83.26
2018-02-24T08:35:08.573Z,83.64
2018-02-24T08:36:09.451Z,83.73
2018-02-24T08:37:08.687Z,83.92
2018-02-24T08:38:31.170Z,84.20
2018-02-24T08:39:53.621Z,84.49
2018-02-24T08:40:54.478Z,84.68
2018-02-24T08:41:53.310Z,84.58
2018-02-24T08:42:54.311Z,84.49
2018-02-24T08:43:53.705Z,84.58
2018-02-24T08:44:53.588Z,84.77
2018-02-24T08:45:53.279Z,84.86
2018-02-24T08:46:54.331Z,84.86
2018-02-24T08:47:53.403Z,84.77
2018-02-24T08:48:53.226Z,84.68
2018-02-24T08:49:54.254Z,84.49
2018-02-24T08:50:54.637Z,84.49
2018-02-24T08:51:54.180Z,84.77
2018-02-24T08:52:54.691Z,85.15
2018-02-24T08:53:53.674Z,85.34
2018-02-24T08:54:53.460Z,85.53
2018-02-24T08:55:54.231Z,85.43
2018-02-24T08:56:54.289Z,85.43
2018-02-24T08:59:21.788Z,85.91
2018-02-24T09:00:21.440Z,86.00
2018-02-24T09:01:22.013Z,85.91
2018-02-24T09:02:22.091Z,86.00
2018-02-24T09:04:05.800Z,85.91
2018-02-24T09:05:06.972Z,86.10
2018-02-24T09:06:06.261Z,86.10
2018-02-24T09:07:06.145Z,85.81
2018-02-24T09:08:06.738Z,85.53
2018-02-24T09:09:06.717Z,85.24
2018-02-24T09:10:07.019Z,84.77
2018-02-24T09:11:06.211Z,84.58
2018-02-24T09:12:06.112Z,84.25
2018-02-24T09:13:28.228Z,84.16
2018-02-24T09:14:28.666Z,84.16
2018-02-24T09:15:28.978Z,83.97
2018-02-24T09:16:28.682Z,83.92
2018-02-24T09:17:28.384Z,84.20
2018-02-24T09:19:43.187Z,84.72
2018-02-24T09:20:43.919Z,84.63
2018-02-24T09:21:43.607Z,84.53
2018-02-24T09:23:05.454Z,84.81
2018-02-24T09:24:05.269Z,84.72
2018-02-24T09:25:06.325Z,84.72
2018-02-24T09:26:05.731Z,84.72
2018-02-24T09:27:06.576Z,84.91
2018-02-24T09:28:05.966Z,85.10
2018-02-24T09:29:05.462Z,84.81
2018-02-24T09:30:06.058Z,84.63
2018-02-24T09:31:06.178Z,84.44
2018-02-24T09:32:28.652Z,84.34
2018-02-24T09:33:28.726Z,84.34
2018-02-24T09:34:28.321Z,84.25
2018-02-24T09:35:30.413Z,84.34
2018-02-24T09:36:51.075Z,84.44
2018-02-24T09:37:51.204Z,84.53
2018-02-24T09:39:13.799Z,84.34
2018-02-24T09:40:14.540Z,84.25
2018-02-24T09:41:57.257Z,83.87
2018-02-24T09:42:58.451Z,83.87
2018-02-24T09:43:58.440Z,84.01
2018-02-24T09:44:57.875Z,83.72
2018-02-24T09:45:57.646Z,83.72
2018-02-24T09:46:58.904Z,83.72
2018-02-24T09:47:57.586Z,83.78
2018-02-24T09:48:57.224Z,83.87
2018-02-24T09:49:58.401Z,84.20
2018-02-24T09:50:58.754Z,84.39
2018-02-24T09:51:58.509Z,84.34
2018-02-24T09:53:00.252Z,84.44
2018-02-24T09:53:59.593Z,84.53
2018-02-24T09:54:57.784Z,84.91
2018-02-24T09:55:59.489Z,85.10
2018-02-24T09:56:58.594Z,85.28
2018-02-24T09:57:59.542Z,85.19
2018-02-24T09:58:59.063Z,85.28
2018-02-24T09:59:58.693Z,85.28
2018-02-24T10:00:58.748Z,85.28
2018-02-24T10:01:58.803Z,85.10
2018-02-24T10:03:45.871Z,85.38
2018-02-24T10:04:46.928Z,85.42
2018-02-24T10:05:46.845Z,85.24
2018-02-24T10:07:06.823Z,85.05
2018-02-24T10:08:07.368Z,84.77
2018-02-24T10:09:28.296Z,84.39
2018-02-24T10:10:29.092Z,84.29
2018-02-24T10:11:50.856Z,84.48
2018-02-24T10:12:52.471Z,84.67
2018-02-24T10:13:51.046Z,84.86
2018-02-24T10:14:52.195Z,84.95
2018-02-24T10:15:51.804Z,85.14
2018-02-24T10:16:51.845Z,85.05
2018-02-24T10:17:53.014Z,85.05
2018-02-24T10:18:51.796Z,85.33
2018-02-24T10:19:51.737Z,85.61
2018-02-24T10:20:51.150Z,85.71
2018-02-24T10:21:51.170Z,85.80
2018-02-24T10:22:51.628Z,85.99
2018-02-24T10:23:51.502Z,85.99
2018-02-24T10:24:51.807Z,85.80
2018-02-24T10:25:58.006Z,85.71
2018-02-24T10:26:54.600Z,85.52
2018-02-24T10:28:17.065Z,85.42
2018-02-24T10:29:14.781Z,85.52
2018-02-24T10:30:15.838Z,85.05
2018-02-24T10:31:15.060Z,84.95
2018-02-24T10:32:17.027Z,85.24
2018-02-24T10:33:15.435Z,85.61
2018-02-24T10:34:16.595Z,86.09
2018-02-24T10:35:38.202Z,86.47
2018-02-24T10:36:38.832Z,87.04
2018-02-24T10:37:38.845Z,87.23
2018-02-24T10:38:39.488Z,87.32
2018-02-24T10:39:39.539Z,87.13
2018-02-24T10:40:39.550Z,86.85
2018-02-24T10:41:38.685Z,86.37
2018-02-24T10:42:38.851Z,85.94
2018-02-24T10:43:38.975Z,85.66
2018-02-24T10:45:01.709Z,85.28
2018-02-24T10:46:02.529Z,84.81
2018-02-24T10:47:02.147Z,84.71
2018-02-24T10:48:01.727Z,84.81
2018-02-24T10:49:01.836Z,84.71
2018-02-24T10:50:50.576Z,84.52
2018-02-24T10:52:01.925Z,84.23
2018-02-24T10:53:02.308Z,83.95
2018-02-24T10:54:02.454Z,84.05
2018-02-24T10:55:02.749Z,83.95
2018-02-24T10:56:00.787Z,83.86
2018-02-24T10:57:22.888Z,84.14
2018-02-24T10:58:23.752Z,84.05
2018-02-24T10:59:24.234Z,84.23
2018-02-24T11:00:23.409Z,83.86
2018-02-24T11:01:23.356Z,83.76
2018-02-24T11:02:23.412Z,83.67
2018-02-24T11:03:23.032Z,83.01
2018-02-24T11:04:23.049Z,82.72
2018-02-24T11:05:22.841Z,82.57
2018-02-24T11:06:23.654Z,82.01
2018-02-24T11:07:45.813Z,81.53
2018-02-24T11:08:45.823Z,80.68
2018-02-24T11:10:07.586Z,80.21
2018-02-24T11:11:07.380Z,79.83
2018-02-24T11:12:08.181Z,78.83
2018-02-24T11:13:08.051Z,78.26
2018-02-24T11:14:07.800Z,77.78
2018-02-24T11:15:07.492Z,76.59
2018-02-24T11:16:07.493Z,75.02
2018-02-24T11:17:07.544Z,73.54
2018-02-24T11:18:29.686Z,71.36
2018-02-24T11:19:30.609Z,70.03
2018-02-24T11:20:30.513Z,69.99
2018-02-24T11:21:30.361Z,70.03
2018-02-24T11:22:30.278Z,69.46
2018-02-24T11:23:31.136Z,69.08
2018-02-24T11:25:14.565Z,67.75
2018-02-24T11:26:17.947Z,68.15
2018-02-24T11:27:14.741Z,70.34
2018-02-24T11:28:15.364Z,72.00
2018-02-24T11:29:34.292Z,73.33
2018-02-24T11:30:21.306Z,74.03
2018-02-24T11:33:59.049Z,72.14
2018-02-24T11:34:53.431Z,72.52
2018-02-24T11:35:52.900Z,72.61
2018-02-24T11:36:51.832Z,72.52
2018-02-24T11:37:53.281Z,73.33
2018-02-24T11:38:53.731Z,74.18
2018-02-24T11:39:53.976Z,74.95
2018-02-24T11:40:53.494Z,74.60
2018-02-24T11:41:52.030Z,73.69
2018-02-24T11:42:52.133Z,72.61
2018-02-24T11:43:53.507Z,72.33
2018-02-24T11:44:52.180Z,72.57
2018-02-24T11:45:54.140Z,73.61
2018-02-24T11:46:57.689Z,74.37
2018-02-24T11:47:56.969Z,74.88
2018-02-24T11:48:55.739Z,73.90
2018-02-24T11:50:07.665Z,73.90
2018-02-24T11:50:55.704Z,74.18
2018-02-24T11:51:53.740Z,74.09
2018-02-24T11:52:54.220Z,74.56
2018-02-24T11:53:52.324Z,74.37
2018-02-24T11:54:56.870Z,74.75
2018-02-24T11:55:56.145Z,75.23
2018-02-24T11:56:53.298Z,75.76
2018-02-24T11:57:51.712Z,76.17
2018-02-24T11:58:51.672Z,75.23
2018-02-24T11:59:52.112Z,75.47
2018-02-24T12:00:51.886Z,76.04
2018-02-24T12:01:51.805Z,76.51
2018-02-24T12:03:15.710Z,76.08
2018-02-24T12:04:16.202Z,75.51
2018-02-24T12:05:16.318Z,75.60
2018-02-24T12:06:17.228Z,75.76
2018-02-24T12:08:00.129Z,76.14
2018-02-24T12:08:59.710Z,76.70
2018-02-24T12:09:59.516Z,76.99
2018-02-24T12:11:02.240Z,77.27
2018-02-24T12:12:00.396Z,77.75
2018-02-24T12:13:00.430Z,77.75
2018-02-24T12:14:00.450Z,78.08
2018-02-24T12:15:00.094Z,78.56
2018-02-24T12:16:00.523Z,79.13
2018-02-24T12:16:59.238Z,79.69
2018-02-24T12:18:01.413Z,79.88
2018-02-24T12:19:22.070Z,80.26
2018-02-24T12:20:22.214Z,80.83
2018-02-24T12:21:22.580Z,81.30
2018-02-24T12:22:44.936Z,81.49
2018-02-24T12:23:44.880Z,81.30
2018-02-24T12:24:44.553Z,81.40
2018-02-24T12:25:44.852Z,81.59
2018-02-24T12:26:44.748Z,81.59
2018-02-24T12:27:44.788Z,81.59
2018-02-24T12:29:06.515Z,81.59
2018-02-24T12:30:07.022Z,81.59
2018-02-24T12:31:06.806Z,81.59
2018-02-24T12:32:06.809Z,81.59
2018-02-24T12:33:06.657Z,81.77
2018-02-24T12:34:06.938Z,81.77
2018-02-24T12:35:06.514Z,81.77
2018-02-24T12:36:06.361Z,81.87
2018-02-24T12:37:07.745Z,82.06
2018-02-24T12:38:06.763Z,82.44
2018-02-24T12:39:06.566Z,82.53
2018-02-24T12:40:06.123Z,82.53
2018-02-24T12:41:07.169Z,82.34
2018-02-24T12:42:06.809Z,82.15
2018-02-24T12:43:06.868Z,81.96
2018-02-24T12:44:06.870Z,81.59
2018-02-24T12:45:06.546Z,81.49
2018-02-24T12:46:06.454Z,81.30
2018-02-24T12:47:07.169Z,80.83
2018-02-24T12:48:07.246Z,80.64
2018-02-24T12:49:07.298Z,80.55
2018-02-24T12:50:07.292Z,80.45
2018-02-24T12:51:07.162Z,80.64
2018-02-24T12:52:06.817Z,80.74
2018-02-24T12:53:06.840Z,80.74
2018-02-24T12:54:06.459Z,80.64
2018-02-24T12:55:07.629Z,80.83
2018-02-24T12:56:06.503Z,81.02
2018-02-24T12:57:06.704Z,81.12
2018-02-24T12:58:06.635Z,81.02
2018-02-24T12:59:06.535Z,80.26
2018-02-24T13:00:06.620Z,79.69
2018-02-24T13:01:06.422Z,79.17
2018-02-24T13:02:08.180Z,77.59
2018-02-24T13:03:07.704Z,75.42
2018-02-24T13:04:07.124Z,75.70
2018-02-24T13:05:06.904Z,75.04
2018-02-24T13:06:07.341Z,74.37
2018-02-24T13:07:07.464Z,74.24
2018-02-24T13:08:06.252Z,74.68
2018-02-24T13:09:07.948Z,75.72
2018-02-24T13:10:07.023Z,76.57
2018-02-24T13:11:28.972Z,75.95
2018-02-24T13:12:28.812Z,76.04
2018-02-24T13:13:28.794Z,75.57
2018-02-24T13:14:28.667Z,75.53
2018-02-24T13:15:29.627Z,75.81
2018-02-24T13:16:28.291Z,75.85
2018-02-24T13:17:29.233Z,75.42
2018-02-24T13:18:30.061Z,73.52
2018-02-24T13:19:31.393Z,71.85
2018-02-24T13:20:31.563Z,70.37
2018-02-24T13:21:51.059Z,69.04
2018-02-24T13:22:52.388Z,68.38
2018-02-24T13:23:51.263Z,67.62
2018-02-24T13:25:14.232Z,66.89
2018-02-24T13:26:20.396Z,65.95